x

Nickerson Bank (44251) Wave Buoy

1:00am - Thu 25th Aug 2016 All times are UTC.

  • Sig Wave height 4.6ft
  • Peak Period 8s
  • Wind
    13mph, 16mph gusts
  • Sea Temp 60°f
  • Air Temp 63°f
  • Sea Pressure 1018.9mb

More Historic Weather Station data

Upgrade to MSW Pro to gain access to the past 30 days of data for over 8000 Wavebouys and Weather Stations around the globe.

Join Pro

Comparision Forecast

View Surf forecast
   
Thu 08/25 1:00am 4.5ft 8s 13 16 mph 1018.9mb 60f 63f
12:00am 4.5ft 8s 13 16 mph 1019.1mb 60f 63f
Wed 08/24 11:00pm 5ft 8s 11 13 mph 1018.8mb 60f 63f
10:00pm 4.5ft 8s 13 16 mph 1018.5mb 60f 64f
9:00pm 4.5ft 8s 13 16 mph 1018.5mb 60f 64f
8:00pm 5ft 9s 13 16 mph 1018.5mb 60f 63f
7:00pm 4.5ft 8s 11 13 mph 1018.7mb 60f 64f
6:00pm 4.5ft 7s 13
mph
1019.1mb 60f 63f
5:00pm 5ft 8s 9 11 mph 1019.6mb 60f 63f
4:00pm 5ft 8s 11 13 mph 1020mb 60f 63f
3:00pm 5.5ft 8s 13 16 mph 1020.3mb 60f 63f
2:00pm 6ft 8s 11 13 mph 1020.4mb 60f 62f
1:00pm 5ft 8s 11 13 mph 1020.2mb 59f 62f
12:00pm 6ft 8s 11 13 mph 1019.9mb 59f 62f
11:00am 6ft 8s 9 11 mph 1019.9mb 59f 62f
10:00am 6.5ft 8s 9 11 mph 1019.4mb 59f 61f
9:00am 6ft 8s 11 13 mph 1019mb 59f 61f
8:00am 7ft 7s 9 11 mph 1018.2mb 59f 61f
7:00am 7ft 8s 11 13 mph 1017.6mb 59f 61f
6:00am 6.5ft 6s 11 13 mph 1017.4mb 59f 61f
5:00am 6ft 6s 13 18 mph 1016.8mb 59f 61f
4:00am 6ft 7s 18 20 mph 1015.8mb 58f 62f
3:00am 5.5ft 6s 18 22 mph 1015.3mb 59f 62f
2:00am 5.5ft 7s 18 20 mph 1014.6mb 59f 62f
1:00am 5ft 7s 20 27 mph 1014.4mb 59f 63f
12:00am 5.5ft 7s 18 22 mph 1013.8mb 59f 62f
Tue 08/23 11:00pm 5ft 7s 18 22 mph 1013.1mb 59f 63f
10:00pm 5.5ft 7s 18 22 mph 1012.6mb 59f 63f
9:00pm 5ft 7s 20 22 mph 1011.7mb 59f 63f
8:00pm 5.5ft 7s 18 20 mph 1011mb 59f 64f
7:00pm 6ft 6s 16 18 mph 1010.4mb 59f 63f
6:00pm 6ft 7s 13 16 mph 1009.7mb 59f 63f
5:00pm 6ft 6s 16 18 mph 1009.6mb 59f 63f
4:00pm 5.5ft 7s 18 20 mph 1009.7mb 59f 64f
3:00pm 5.5ft 6s 18 20 mph 1009.7mb 59f 64f
2:00pm 5.5ft 6s 18 20 mph 1010.2mb 59f 64f
1:00pm 5.5ft 6s 18 20 mph 1010.9mb 59f 63f
12:00pm 5.5ft 6s 20 22 mph 1011.4mb 58f 63f
11:00am 5ft 6s 18 22 mph 1012.3mb 58f 63f
10:00am 4.5ft 5s 20 22 mph 1012.9mb 58f 63f
9:00am 4.5ft 5s 20 22 mph 1013.7mb 59f 63f
8:00am 4.5ft 6s 18 22 mph 1014.4mb 59f 62f
7:00am 4.5ft 5s 18 20 mph 1015.3mb 59f 62f
6:00am 4.5ft 5s 16 20 mph 1016.1mb 59f 62f
5:00am 4ft 5s 18 20 mph 1016.4mb 59f 61f
4:00am 4ft 5s 16 20 mph 1017.4mb 58f 61f
3:00am 3.5ft 5s 16 18 mph 1018.3mb 58f 60f
2:00am 4ft 5s 16 18 mph 1019.4mb 58f 61f
1:00am 3.5ft 4s 16 20 mph 1020mb 58f 61f
12:00am 3.5ft 5s 16 18 mph 1020.1mb 58f 61f
Mon 08/22 11:00pm 3.5ft 5s 16 20 mph 1020.1mb 59f 61f
10:00pm 3.5ft 4s 16 20 mph 1020.4mb 59f 61f
9:00pm 3.5ft 11s 16 20 mph 1020.7mb 59f 61f
8:00pm 3ft 5s 13 16 mph 1021.1mb 59f 62f
7:00pm 3ft 10s 11 13 mph 1021.5mb 59f 62f
6:00pm 3ft 9s 9 11 mph 1021.6mb 59f 62f
5:00pm 3ft 9s 16 18 mph 1021.6mb 59f 62f
4:00pm 3ft 8s 13 16 mph 1022mb 59f 62f
3:00pm 3ft 9s 11 13 mph 1022.5mb 59f 62f
2:00pm 3ft 9s 11 13 mph 1022.7mb 59f 61f
1:00pm 3ft 8s 9 11 mph 1022.9mb 59f 61f
12:00pm 3.5ft 9s 11
mph
1022.9mb 59f 61f
11:00am 3.5ft 9s 4 7 mph 1023mb 58f 61f
10:00am 3.5ft 10s 9 11 mph 1022.8mb 58f 61f
9:00am 3.5ft 9s 9 13 mph 1022.9mb 58f 61f
8:00am 3.5ft 10s 11 13 mph 1022.6mb 59f 62f
7:00am 3.5ft 10s 13 16 mph 1022.5mb 58f 62f
6:00am 3.5ft 10s 7 9 mph 1023.2mb 59f 61f
5:00am 3.5ft 5s 7 9 mph 1023.2mb 59f 61f
4:00am 3ft 9s 9
mph
1023.6mb 59f 61f
3:00am 3ft 9s 11 16 mph 1023.5mb 59f 61f
2:00am 3ft 8s 9 11 mph 1023.9mb 59f 62f
1:00am 3ft 13s 7 9 mph 1024mb 59f 61f
12:00am 3ft 14s 4
mph
1024.3mb 59f 61f
Sun 08/21 11:00pm 3.5ft 9s 7
mph
1024.4mb 59f 61f
10:00pm 3.5ft 8s 7 9 mph 1024.4mb 59f 61f
9:00pm 3.5ft 9s 9
mph
1024.4mb 59f 62f
8:00pm 3.5ft 9s 7 9 mph 1024.3mb 59f 62f
7:00pm 3.5ft 10s 7 9 mph 1024.5mb 59f 62f
6:00pm 3.5ft 10s 7
mph
1024.9mb 59f 62f
5:00pm 3.5ft 9s 9
mph
1024.7mb 59f 62f
4:00pm 3ft 10s 9
mph
1024.6mb 59f 61f
3:00pm 3ft 10s 9 13 mph 1024.4mb 59f 61f
2:00pm 3.5ft 10s 9
mph
1024.9mb 59f 60f
1:00pm 3.5ft 10s 7
mph
1024.8mb 58f 60f
12:00pm 3.5ft 10s 9 11 mph 1024.7mb 58f 60f
11:00am 3.5ft 11s 4 7 mph 1024.4mb 58f 59f
10:00am 4ft 9s 2 4 mph 1024.4mb 58f 59f
9:00am 4.5ft 10s 4
mph
1024.1mb 58f 58f
8:00am 4.5ft 10s 4
mph
1023.9mb 58f 58f
7:00am 4.5ft 10s 2 4 mph 1023.6mb 58f 58f
6:00am 4.5ft 10s 2 4 mph 1023.8mb 58f 58f
5:00am 4.5ft 10s 2
mph
1023.9mb 58f 58f
4:00am 4ft 10s 2 4 mph 1023.6mb 58f 58f
3:00am 4ft 10s 2 4 mph 1023.4mb 58f 58f